Time;durP1;ratioP1;P1;durP2;ratioP2;P2;SDS_P1;SDS_P2;PMS_P1;PMS_P2;Temp;Humidity;BMP_temperature;BMP_pressure;BME280_temperature;BME280_humidity;BME280_pressure;Samples;Min_cycle;Max_cycle;Signal;HPM_P1;HPM_P2
2024/03/24 00:02:17;;;;;;;23.52;2.78;;;;;;;;;;5034866;28;20043;-74
2024/03/24 00:04:42;;;;;;;19.33;3.08;;;;;;;;;;5036636;28;20037;-74
2024/03/24 00:07:08;;;;;;;14.98;2.78;;;;;;;;;;5036256;28;20091;-75
2024/03/24 00:09:34;;;;;;;19.13;2.80;;;;;;;;;;5036708;28;20041;-74
2024/03/24 00:12:00;;;;;;;13.32;2.78;;;;;;;;;;5036600;28;20037;-74
2024/03/24 00:14:25;;;;;;;22.40;2.92;;;;;;;;;;5035969;28;20129;-75
2024/03/24 00:16:51;;;;;;;22.08;2.40;;;;;;;;;;5036512;28;20531;-75
2024/03/24 00:19:17;;;;;;;21.50;2.80;;;;;;;;;;5035756;28;20060;-75
2024/03/24 00:21:42;;;;;;;18.30;2.28;;;;;;;;;;5020002;28;20037;-74
2024/03/24 00:24:08;;;;;;;15.90;3.08;;;;;;;;;;5035926;28;20128;-74
2024/03/24 00:26:34;;;;;;;21.13;2.28;;;;;;;;;;5050860;28;20051;-74
2024/03/24 00:29:00;;;;;;;11.52;2.13;;;;;;;;;;5055739;28;20127;-74
2024/03/24 00:31:25;;;;;;;18.00;2.97;;;;;;;;;;5055686;28;20047;-75
2024/03/24 00:33:51;;;;;;;19.02;2.17;;;;;;;;;;5056213;28;20437;-75
2024/03/24 00:36:17;;;;;;;12.57;2.35;;;;;;;;;;5055425;28;20481;-75
2024/03/24 00:38:43;;;;;;;12.00;1.77;;;;;;;;;;5056032;28;20132;-74
2024/03/24 00:41:08;;;;;;;15.35;2.42;;;;;;;;;;5055540;28;20044;-74
2024/03/24 00:43:38;;;;;;;11.27;1.70;;;;;;;;;;5055861;28;20463;-75
2024/03/24 00:46:04;;;;;;;17.50;2.05;;;;;;;;;;5055867;28;20489;-75
2024/03/24 00:48:30;;;;;;;16.65;2.22;;;;;;;;;;5055655;28;20044;-74
2024/03/24 00:50:55;;;;;;;10.93;2.13;;;;;;;;;;5055631;28;20475;-75
2024/03/24 00:53:22;;;;;;;17.65;2.17;;;;;;;;;;5055274;28;20070;-74
2024/03/24 00:55:48;;;;;;;17.70;3.00;;;;;;;;;;5039100;28;20048;-75
2024/03/24 00:58:14;;;;;;;13.77;3.13;;;;;;;;;;5055074;28;20440;-75
2024/03/24 01:00:40;;;;;;;17.15;2.42;;;;;;;;;;5039156;28;20044;-74
2024/03/24 01:03:07;;;;;;;20.30;2.28;;;;;;;;;;5054879;28;20138;-75
2024/03/24 01:05:33;;;;;;;15.98;2.95;;;;;;;;;;5055580;28;20036;-75
2024/03/24 01:07:58;;;;;;;19.65;2.40;;;;;;;;;;5055451;28;20089;-75
2024/03/24 01:10:24;;;;;;;13.02;1.67;;;;;;;;;;5055037;28;20052;-74
2024/03/24 01:12:50;;;;;;;18.05;1.80;;;;;;;;;;5055425;28;20459;-74
2024/03/24 01:15:18;;;;;;;18.48;2.50;;;;;;;;;;5054868;28;20048;-74
2024/03/24 01:17:45;;;;;;;14.57;2.35;;;;;;;;;;5055221;28;20044;-75
2024/03/24 01:20:11;;;;;;;20.77;2.40;;;;;;;;;;5054920;28;20036;-74
2024/03/24 01:22:42;;;;;;;11.73;1.77;;;;;;;;;;5055374;28;20158;-75
2024/03/24 01:25:08;;;;;;;24.63;2.60;;;;;;;;;;5055374;28;20167;-74
2024/03/24 01:27:34;;;;;;;17.42;2.67;;;;;;;;;;5039322;28;20062;-74
2024/03/24 01:30:00;;;;;;;18.30;2.38;;;;;;;;;;5055575;28;20044;-75
2024/03/24 01:32:26;;;;;;;15.55;1.88;;;;;;;;;;5053950;28;20044;-75
2024/03/24 01:34:52;;;;;;;15.65;2.22;;;;;;;;;;5053549;28;20560;-75
2024/03/24 01:37:17;;;;;;;14.35;1.95;;;;;;;;;;5053278;28;20072;-74
2024/03/24 01:39:46;;;;;;;11.15;2.25;;;;;;;;;;5036917;28;20269;-75
2024/03/24 01:42:12;;;;;;;17.58;2.30;;;;;;;;;;5036107;28;20051;-76
2024/03/24 01:44:39;;;;;;;16.77;2.60;;;;;;;;;;5055153;28;20040;-74
2024/03/24 01:47:05;;;;;;;16.48;2.47;;;;;;;;;;5054803;28;20040;-75
2024/03/24 01:49:31;;;;;;;19.70;2.83;;;;;;;;;;5054454;28;20048;-75
2024/03/24 01:51:57;;;;;;;17.23;2.42;;;;;;;;;;5038200;28;20044;-75
2024/03/24 01:54:25;;;;;;;25.92;3.35;;;;;;;;;;5054475;28;20390;-74
2024/03/24 01:56:51;;;;;;;18.13;2.38;;;;;;;;;;5054792;28;20393;-75
2024/03/24 01:59:17;;;;;;;23.17;3.10;;;;;;;;;;5037802;28;20053;-75
2024/03/24 02:01:43;;;;;;;17.63;2.85;;;;;;;;;;5054669;28;20043;-74
2024/03/24 02:04:09;;;;;;;23.77;3.15;;;;;;;;;;5054135;28;20040;-75
2024/03/24 02:06:35;;;;;;;28.42;4.25;;;;;;;;;;5038110;28;20051;-74
2024/03/24 02:09:01;;;;;;;27.42;3.78;;;;;;;;;;5038176;28;20501;-75
2024/03/24 02:11:30;;;;;;;18.10;3.33;;;;;;;;;;5054315;28;20344;-75
2024/03/24 02:13:59;;;;;;;32.30;3.47;;;;;;;;;;5054762;28;20047;-74
2024/03/24 02:16:25;;;;;;;14.75;2.78;;;;;;;;;;5054222;28;20036;-75
2024/03/24 02:18:51;;;;;;;31.13;3.55;;;;;;;;;;5054361;28;20048;-74
2024/03/24 02:21:17;;;;;;;27.95;3.88;;;;;;;;;;5037576;28;20044;-74
2024/03/24 02:23:42;;;;;;;29.73;3.10;;;;;;;;;;5054763;28;20037;-74
2024/03/24 02:26:08;;;;;;;21.52;3.08;;;;;;;;;;5053876;28;20041;-74
2024/03/24 02:28:34;;;;;;;21.90;3.03;;;;;;;;;;5054630;28;20482;-74
2024/03/24 02:31:01;;;;;;;26.50;3.38;;;;;;;;;;5054272;28;20029;-75
2024/03/24 02:33:27;;;;;;;27.95;3.58;;;;;;;;;;5054143;28;20056;-75
2024/03/24 02:35:53;;;;;;;24.90;2.83;;;;;;;;;;5054490;28;20036;-75
2024/03/24 02:38:19;;;;;;;29.83;3.40;;;;;;;;;;5053989;28;20055;-74
2024/03/24 02:40:47;;;;;;;29.85;4.22;;;;;;;;;;5054389;28;20152;-74
2024/03/24 02:43:13;;;;;;;;;;;;;;;;;;5054501;28;20042;-75
2024/03/24 02:45:39;;;;;;;22.88;3.33;;;;;;;;;;5054077;28;19960;-74
2024/03/24 02:48:05;;;;;;;21.92;3.40;;;;;;;;;;5054004;28;20036;-74
2024/03/24 02:50:31;;;;;;;23.25;3.25;;;;;;;;;;5054203;28;20414;-75
2024/03/24 02:52:56;;;;;;;29.85;4.25;;;;;;;;;;5055796;28;20168;-74
2024/03/24 02:55:25;;;;;;;15.40;2.55;;;;;;;;;;5057406;28;20044;-74
2024/03/24 02:57:52;;;;;;;21.63;2.67;;;;;;;;;;5041614;28;20127;-74
2024/03/24 03:00:17;;;;;;;19.45;2.88;;;;;;;;;;5057458;28;20045;-74
2024/03/24 03:02:44;;;;;;;17.85;2.78;;;;;;;;;;5058028;28;20131;-74
2024/03/24 03:05:10;;;;;;;19.48;3.13;;;;;;;;;;5057317;28;20044;-75
2024/03/24 03:07:35;;;;;;;21.38;4.07;;;;;;;;;;5057737;28;20467;-74
2024/03/24 03:10:07;;;;;;;17.95;2.78;;;;;;;;;;5057766;28;20049;-74
2024/03/24 03:12:34;;;;;;;27.67;3.30;;;;;;;;;;5057593;28;20055;-74
2024/03/24 03:15:02;;;;;;;22.67;3.28;;;;;;;;;;5057656;28;20032;-74
2024/03/24 03:17:27;;;;;;;22.30;2.60;;;;;;;;;;5057063;28;20046;-74
2024/03/24 03:19:53;;;;;;;21.98;2.95;;;;;;;;;;5057541;28;20040;-75
2024/03/24 03:22:19;;;;;;;21.50;2.70;;;;;;;;;;5057088;28;20051;-75
2024/03/24 03:24:45;;;;;;;17.92;2.83;;;;;;;;;;5057463;28;20043;-75
2024/03/24 03:27:12;;;;;;;22.27;3.20;;;;;;;;;;5057151;28;20043;-75
2024/03/24 03:29:38;;;;;;;25.35;2.92;;;;;;;;;;5057768;28;20041;-75
2024/03/24 03:32:04;;;;;;;16.77;2.60;;;;;;;;;;5057736;28;20490;-75
2024/03/24 03:34:30;;;;;;;15.23;3.33;;;;;;;;;;5057570;28;20505;-74
2024/03/24 03:36:56;;;;;;;15.20;2.97;;;;;;;;;;5057284;28;20046;-75
2024/03/24 03:39:21;;;;;;;19.42;3.25;;;;;;;;;;5056957;28;20048;-74
2024/03/24 03:41:47;;;;;;;18.77;2.80;;;;;;;;;;5057064;28;20041;-75
2024/03/24 03:44:13;;;;;;;13.45;3.55;;;;;;;;;;5040045;28;20094;-75
2024/03/24 03:46:39;;;;;;;19.98;3.28;;;;;;;;;;5040435;28;20124;-74
2024/03/24 03:49:04;;;;;;;23.63;3.08;;;;;;;;;;5056604;28;20117;-74
2024/03/24 03:51:37;;;;;;;17.77;3.33;;;;;;;;;;5056723;28;20064;-74
2024/03/24 03:54:09;;;;;;;18.95;2.80;;;;;;;;;;5056883;28;20032;-74
2024/03/24 03:56:35;;;;;;;24.45;2.92;;;;;;;;;;5057139;28;20039;-73
2024/03/24 03:59:00;;;;;;;19.25;3.72;;;;;;;;;;5056948;28;20040;-74
2024/03/24 04:01:26;;;;;;;22.98;3.10;;;;;;;;;;5040759;28;20045;-75
2024/03/24 04:03:53;;;;;;;23.90;2.80;;;;;;;;;;5056526;28;20048;-74
2024/03/24 04:06:19;;;;;;;20.60;3.60;;;;;;;;;;5039811;28;20044;-75
2024/03/24 04:08:44;;;;;;;16.65;2.83;;;;;;;;;;5056685;28;20049;-74
2024/03/24 04:11:10;;;;;;;14.75;3.17;;;;;;;;;;5055910;28;20048;-75
2024/03/24 04:13:36;;;;;;;16.83;2.63;;;;;;;;;;5056532;28;20475;-75
2024/03/24 04:16:05;;;;;;;16.65;2.70;;;;;;;;;;5056619;28;20048;-75
2024/03/24 04:18:31;;;;;;;11.38;2.85;;;;;;;;;;5054967;28;20369;-75
2024/03/24 04:20:59;;;;;;;16.85;2.30;;;;;;;;;;5055025;28;20119;-74
2024/03/24 04:23:25;;;;;;;19.58;2.35;;;;;;;;;;5053716;28;20037;-75
2024/03/24 04:25:54;;;;;;;14.27;2.47;;;;;;;;;;5055426;28;20064;-74
2024/03/24 04:28:20;;;;;;;15.93;2.35;;;;;;;;;;5035634;28;20041;-75
2024/03/24 04:30:46;;;;;;;15.93;2.08;;;;;;;;;;5036284;28;20040;-75
2024/03/24 04:33:11;;;;;;;21.65;2.97;;;;;;;;;;5035792;28;20056;-75
2024/03/24 04:35:37;;;;;;;13.32;2.28;;;;;;;;;;5048611;28;20044;-75
2024/03/24 04:38:03;;;;;;;20.80;2.67;;;;;;;;;;5056011;28;20040;-74
2024/03/24 04:40:29;;;;;;;15.13;2.38;;;;;;;;;;5055876;28;20044;-75
2024/03/24 04:42:55;;;;;;;12.82;2.53;;;;;;;;;;5055962;28;20066;-74
2024/03/24 04:45:21;;;;;;;15.20;2.28;;;;;;;;;;5055463;28;20502;-75
2024/03/24 04:47:47;;;;;;;11.05;2.60;;;;;;;;;;5055562;28;20085;-75
2024/03/24 04:50:13;;;;;;;17.10;2.25;;;;;;;;;;5055307;28;20484;-75
2024/03/24 04:52:38;;;;;;;11.95;2.55;;;;;;;;;;5055819;28;20039;-75
2024/03/24 04:55:05;;;;;;;10.82;1.95;;;;;;;;;;5055302;28;20044;-74
2024/03/24 04:57:30;;;;;;;14.05;1.98;;;;;;;;;;5055760;28;20040;-74
2024/03/24 04:59:56;;;;;;;12.45;1.80;;;;;;;;;;5039098;28;20356;-74
2024/03/24 05:02:22;;;;;;;10.52;2.00;;;;;;;;;;5055338;28;20067;-75
2024/03/24 05:04:49;;;;;;;12.35;1.98;;;;;;;;;;5055469;28;20526;-75
2024/03/24 05:07:15;;;;;;;16.55;2.55;;;;;;;;;;5055077;28;20037;-75
2024/03/24 05:09:41;;;;;;;7.97;1.75;;;;;;;;;;5038739;28;20444;-74
2024/03/24 05:12:07;;;;;;;10.95;2.17;;;;;;;;;;5055132;28;20072;-74
2024/03/24 05:14:34;;;;;;;16.90;2.25;;;;;;;;;;5055328;28;20053;-74
2024/03/24 05:17:00;;;;;;;24.83;2.17;;;;;;;;;;5054404;28;20045;-74
2024/03/24 05:19:26;;;;;;;15.85;2.35;;;;;;;;;;5054656;28;20051;-75
2024/03/24 05:21:51;;;;;;;17.98;2.83;;;;;;;;;;5055322;28;20048;-74
2024/03/24 05:24:17;;;;;;;14.60;3.20;;;;;;;;;;5054789;28;20402;-74
2024/03/24 05:26:43;;;;;;;24.05;3.92;;;;;;;;;;5055184;28;20037;-74
2024/03/24 05:29:08;;;;;;;14.45;5.68;;;;;;;;;;5054888;28;20437;-75
2024/03/24 05:31:34;;;;;;;14.30;2.75;;;;;;;;;;5054938;28;20162;-74
2024/03/24 05:34:00;;;;;;;16.50;3.60;;;;;;;;;;5055176;28;20040;-75
2024/03/24 05:36:27;;;;;;;13.70;2.75;;;;;;;;;;5054361;28;20076;-75
2024/03/24 05:38:53;;;;;;;12.57;2.95;;;;;;;;;;5055235;28;20040;-75
2024/03/24 05:41:19;;;;;;;16.15;3.03;;;;;;;;;;5054497;28;20047;-75
2024/03/24 05:43:45;;;;;;;13.27;2.95;;;;;;;;;;5055095;28;20048;-74
2024/03/24 05:46:10;;;;;;;16.77;3.47;;;;;;;;;;5054328;28;20502;-75
2024/03/24 05:48:36;;;;;;;17.50;2.88;;;;;;;;;;5038521;28;20047;-74
2024/03/24 05:51:04;;;;;;;15.93;3.20;;;;;;;;;;5054983;28;20043;-74
2024/03/24 05:53:35;;;;;;;13.15;2.53;;;;;;;;;;5054595;28;20040;-75
2024/03/24 05:56:01;;;;;;;15.75;2.92;;;;;;;;;;5054899;28;20105;-75
2024/03/24 05:58:28;;;;;;;15.35;2.83;;;;;;;;;;5054248;28;20468;-75
2024/03/24 06:00:55;;;;;;;16.35;2.92;;;;;;;;;;5054782;28;20043;-74
2024/03/24 06:03:20;;;;;;;19.13;2.92;;;;;;;;;;5054331;28;20049;-74
2024/03/24 06:05:46;;;;;;;14.23;2.08;;;;;;;;;;5054712;28;20136;-75
2024/03/24 06:08:12;;;;;;;19.52;2.92;;;;;;;;;;5054217;28;20045;-75
2024/03/24 06:10:44;;;;;;;17.30;3.60;;;;;;;;;;5038264;28;20132;-74
2024/03/24 06:13:10;;;;;;;11.68;1.80;;;;;;;;;;5037570;28;20043;-74
2024/03/24 06:15:36;;;;;;;10.98;2.42;;;;;;;;;;5054640;28;20105;-74
2024/03/24 06:18:06;;;;;;;20.98;2.88;;;;;;;;;;5054639;28;20044;-77
2024/03/24 06:20:35;;;;;;;13.30;2.75;;;;;;;;;;5054401;28;20045;-74
2024/03/24 06:23:02;;;;;;;12.95;2.50;;;;;;;;;;5054497;28;20429;-75
2024/03/24 06:25:28;;;;;;;21.67;2.17;;;;;;;;;;5054314;28;20040;-75
2024/03/24 06:27:55;;;;;;;11.02;2.05;;;;;;;;;;5055957;28;20455;-75
2024/03/24 06:30:20;;;;;;;38.03;15.57;;;;;;;;;;5051196;28;20037;-75
2024/03/24 06:32:46;;;;;;;17.48;3.67;;;;;;;;;;5054348;28;20499;-75
2024/03/24 06:35:12;;;;;;;20.33;2.63;;;;;;;;;;5055593;28;20044;-74
2024/03/24 06:37:39;;;;;;;20.17;3.30;;;;;;;;;;5056758;28;20040;-75
2024/03/24 06:40:08;;;;;;;11.98;1.75;;;;;;;;;;5055580;28;20440;-74
2024/03/24 06:42:43;;;;;;;14.48;2.63;;;;;;;;;;5054830;28;20051;-75
2024/03/24 06:45:09;;;;;;;19.15;2.33;;;;;;;;;;5054838;28;20040;-75
2024/03/24 06:47:35;;;;;;;11.50;1.70;;;;;;;;;;5050853;28;20041;-75
2024/03/24 06:50:03;;;;;;;19.98;2.65;;;;;;;;;;5055194;28;20140;-75
2024/03/24 06:52:29;;;;;;;12.27;2.15;;;;;;;;;;5065033;28;20096;-74
2024/03/24 06:54:55;;;;;;;18.13;2.42;;;;;;;;;;5055228;28;20036;-75
2024/03/24 06:57:20;;;;;;;12.55;2.35;;;;;;;;;;5054483;28;20483;-75
2024/03/24 06:59:47;;;;;;;17.48;2.55;;;;;;;;;;5054981;28;20459;-74
2024/03/24 07:02:13;;;;;;;17.83;2.30;;;;;;;;;;5054159;28;20040;-74
2024/03/24 07:04:39;;;;;;;17.98;2.55;;;;;;;;;;5054825;28;20044;-75
2024/03/24 07:07:05;;;;;;;16.67;2.03;;;;;;;;;;5054622;28;20040;-74
2024/03/24 07:09:31;;;;;;;16.58;2.08;;;;;;;;;;5056122;28;20060;-75
2024/03/24 07:11:56;;;;;;;16.17;2.40;;;;;;;;;;5056233;28;20051;-74
2024/03/24 07:14:22;;;;;;;18.70;2.45;;;;;;;;;;5055554;28;20394;-75
2024/03/24 07:16:48;;;;;;;11.30;2.20;;;;;;;;;;5056105;28;20074;-74
2024/03/24 07:19:15;;;;;;;14.15;1.88;;;;;;;;;;5055936;28;20050;-73
2024/03/24 07:21:41;;;;;;;17.45;2.00;;;;;;;;;;5056021;28;20052;-75
2024/03/24 07:24:08;;;;;;;20.23;1.95;;;;;;;;;;5055854;28;20079;-75
2024/03/24 07:26:34;;;;;;;18.95;2.38;;;;;;;;;;5056060;28;20051;-74
2024/03/24 07:29:00;;;;;;;16.33;2.47;;;;;;;;;;5039103;28;20043;-75
2024/03/24 07:31:26;;;;;;;20.70;2.83;;;;;;;;;;5055108;28;20048;-74
2024/03/24 07:33:52;;;;;;;12.50;1.95;;;;;;;;;;5067490;28;20040;-75
2024/03/24 07:36:17;;;;;;;14.90;2.20;;;;;;;;;;5053802;28;20479;-74
2024/03/24 07:38:43;;;;;;;11.05;2.42;;;;;;;;;;5053329;28;20037;-75
2024/03/24 07:41:09;;;;;;;14.70;2.03;;;;;;;;;;5053684;28;20102;-74
2024/03/24 07:43:35;;;;;;;10.70;1.85;;;;;;;;;;5053996;28;20441;-74
2024/03/24 07:46:00;;;;;;;13.50;2.40;;;;;;;;;;5042848;28;20036;-75
2024/03/24 07:48:26;;;;;;;20.52;4.10;;;;;;;;;;5053575;28;20045;-74
2024/03/24 07:50:52;;;;;;;11.15;2.08;;;;;;;;;;5054079;28;20044;-75
2024/03/24 07:53:18;;;;;;;17.23;2.83;;;;;;;;;;5053742;28;20055;-74
2024/03/24 07:55:44;;;;;;;13.25;2.00;;;;;;;;;;5053985;28;20151;-75
2024/03/24 07:58:09;;;;;;;11.18;1.95;;;;;;;;;;5053541;28;20082;-75
2024/03/24 08:00:35;;;;;;;24.35;2.45;;;;;;;;;;5045779;28;20044;-75
2024/03/24 08:03:02;;;;;;;17.48;2.88;;;;;;;;;;5055255;28;20090;-75
2024/03/24 08:05:28;;;;;;;16.42;2.50;;;;;;;;;;5054667;28;20064;-75
2024/03/24 08:07:53;;;;;;;16.98;2.47;;;;;;;;;;5053343;28;20094;-74
2024/03/24 08:10:21;;;;;;;20.88;2.38;;;;;;;;;;5053795;28;20044;-75
2024/03/24 08:12:47;;;;;;;17.90;2.15;;;;;;;;;;5053770;28;20079;-74
2024/03/24 08:15:13;;;;;;;24.15;2.90;;;;;;;;;;5047321;28;20078;-75
2024/03/24 08:17:39;;;;;;;14.75;2.40;;;;;;;;;;5049270;28;20493;-75
2024/03/24 08:20:06;;;;;;;14.88;2.88;;;;;;;;;;5052943;28;20040;-74
2024/03/24 08:22:32;;;;;;;17.90;2.45;;;;;;;;;;5052967;28;20041;-74
2024/03/24 08:24:58;;;;;;;11.50;2.03;;;;;;;;;;5053701;28;20401;-73
2024/03/24 08:27:24;;;;;;;16.85;2.38;;;;;;;;;;5052866;28;20048;-74
2024/03/24 08:29:49;;;;;;;13.00;1.85;;;;;;;;;;5036606;28;20132;-74
2024/03/24 08:32:17;;;;;;;17.35;2.40;;;;;;;;;;5052770;28;20048;-74
2024/03/24 08:34:43;;;;;;;17.40;2.50;;;;;;;;;;5053161;28;20471;-75
2024/03/24 08:37:09;;;;;;;9.13;2.30;;;;;;;;;;5052414;28;20038;-75
2024/03/24 08:39:35;;;;;;;10.70;2.63;;;;;;;;;;5048849;28;20048;-75
2024/03/24 08:42:00;;;;;;;20.02;2.22;;;;;;;;;;5050155;28;20067;-76
2024/03/24 08:44:26;;;;;;;12.07;2.03;;;;;;;;;;5051749;28;20064;-73
2024/03/24 08:46:52;;;;;;;16.92;1.95;;;;;;;;;;5064211;28;20506;-73
2024/03/24 08:49:18;;;;;;;15.05;2.20;;;;;;;;;;5051883;28;20368;-73
2024/03/24 08:51:45;;;;;;;9.50;2.55;;;;;;;;;;5051494;28;20048;-73
2024/03/24 08:54:11;;;;;;;11.73;1.90;;;;;;;;;;5049125;28;20036;-75
2024/03/24 08:56:37;;;;;;;15.40;2.35;;;;;;;;;;5031975;28;20170;-75
2024/03/24 08:59:02;;;;;;;16.50;2.50;;;;;;;;;;5050584;28;20035;-75
2024/03/24 09:01:28;;;;;;;20.30;2.40;;;;;;;;;;5050457;28;20037;-75
2024/03/24 09:03:54;;;;;;;15.35;2.53;;;;;;;;;;5056178;28;20372;-76
2024/03/24 09:06:19;;;;;;;15.73;2.47;;;;;;;;;;5059012;28;20040;-75
2024/03/24 09:08:45;;;;;;;11.05;1.65;;;;;;;;;;5042826;28;20048;-75
2024/03/24 09:11:12;;;;;;;14.95;2.00;;;;;;;;;;5048919;28;20094;-75
2024/03/24 09:13:37;;;;;;;14.48;2.67;;;;;;;;;;5052288;28;20036;-75
2024/03/24 09:16:04;;;;;;;21.55;3.03;;;;;;;;;;5052481;28;20399;-75
2024/03/24 09:18:30;;;;;;;11.68;2.22;;;;;;;;;;5018890;28;20408;-74
2024/03/24 09:21:01;;;;;;;16.65;2.67;;;;;;;;;;5052210;28;20139;-75
2024/03/24 09:23:27;;;;;;;16.50;2.10;;;;;;;;;;5051987;28;20119;-74
2024/03/24 09:25:53;;;;;;;17.50;2.63;;;;;;;;;;5051954;28;20048;-74
2024/03/24 09:28:18;;;;;;;19.58;2.90;;;;;;;;;;5051529;28;20369;-75
2024/03/24 09:31:03;;;;;;;14.05;1.95;;;;;;;;;;5036784;28;20048;-75
2024/03/24 09:33:29;;;;;;;14.52;2.40;;;;;;;;;;5068527;28;20036;-74
2024/03/24 09:36:02;;;;;;;14.00;2.40;;;;;;;;;;5054624;28;20037;-74
2024/03/24 09:38:28;;;;;;;15.00;1.88;;;;;;;;;;5054135;28;20056;-75
2024/03/24 09:40:54;;;;;;;12.43;2.72;;;;;;;;;;5054722;28;20154;-74
2024/03/24 09:43:21;;;;;;;18.13;2.53;;;;;;;;;;5058119;28;20103;-75
2024/03/24 09:45:47;;;;;;;11.77;1.70;;;;;;;;;;5055126;28;20123;-77
2024/03/24 09:48:14;;;;;;;12.85;2.85;;;;;;;;;;5065754;28;20046;-75
2024/03/24 09:50:41;;;;;;;11.60;1.77;;;;;;;;;;5053961;28;20039;-74
2024/03/24 09:53:08;;;;;;;13.70;2.10;;;;;;;;;;5041848;28;20059;-74
2024/03/24 09:55:34;;;;;;;13.38;1.75;;;;;;;;;;5052285;28;20045;-74
2024/03/24 09:58:00;;;;;;;9.40;1.55;;;;;;;;;;5036905;28;20044;-75
2024/03/24 10:00:26;;;;;;;12.18;2.00;;;;;;;;;;5053860;28;20051;-74
2024/03/24 10:02:53;;;;;;;11.68;2.00;;;;;;;;;;5057060;28;20098;-75
2024/03/24 10:05:19;;;;;;;13.93;2.53;;;;;;;;;;5059340;28;20047;-75
2024/03/24 10:07:46;;;;;;;12.15;1.75;;;;;;;;;;5059835;28;20089;-74
2024/03/24 10:10:13;;;;;;;14.77;1.90;;;;;;;;;;5059377;28;20042;-74
2024/03/24 10:12:50;;;;;;;15.50;1.80;;;;;;;;;;5059759;28;20040;-74
2024/03/24 10:15:22;;;;;;;14.18;1.88;;;;;;;;;;5044518;28;20045;-74
2024/03/24 10:18:09;;;;;;;12.23;2.25;;;;;;;;;;5055420;28;20041;-77
2024/03/24 10:20:36;;;;;;;11.77;2.22;;;;;;;;;;5050660;28;20040;-77
2024/03/24 10:23:03;;;;;;;15.73;2.40;;;;;;;;;;5044680;28;20417;-74
2024/03/24 10:25:30;;;;;;;13.90;1.75;;;;;;;;;;5061861;28;20786;-75
2024/03/24 10:27:57;;;;;;;10.32;2.03;;;;;;;;;;5059296;28;20376;-74
2024/03/24 10:30:24;;;;;;;17.75;2.50;;;;;;;;;;5044847;28;20048;-75
2024/03/24 10:32:50;;;;;;;13.10;2.28;;;;;;;;;;5046480;28;20471;-75
2024/03/24 10:35:16;;;;;;;14.63;2.30;;;;;;;;;;5060171;28;20475;-75
2024/03/24 10:37:43;;;;;;;15.07;2.33;;;;;;;;;;5043876;28;20493;-75
2024/03/24 10:40:13;;;;;;;9.63;2.03;;;;;;;;;;5062526;28;20089;-75
2024/03/24 10:42:48;;;;;;;11.82;2.35;;;;;;;;;;5049277;28;20082;-74
2024/03/24 10:45:21;;;;;;;10.82;1.73;;;;;;;;;;5058764;28;20041;-77
2024/03/24 10:47:52;;;;;;;15.15;1.90;;;;;;;;;;5071454;28;20090;-77
2024/03/24 10:50:18;;;;;;;10.50;2.03;;;;;;;;;;5059049;28;20047;-75
2024/03/24 10:52:46;;;;;;;10.95;2.22;;;;;;;;;;5044130;28;20446;-74
2024/03/24 10:55:13;;;;;;;11.80;2.00;;;;;;;;;;5053808;28;20047;-74
2024/03/24 10:57:40;;;;;;;10.43;1.85;;;;;;;;;;5036817;28;20135;-74
2024/03/24 11:00:07;;;;;;;12.55;2.05;;;;;;;;;;5062950;28;20036;-72
2024/03/24 11:02:33;;;;;;;8.07;2.20;;;;;;;;;;5036192;28;20040;-75
2024/03/24 11:05:01;;;;;;;7.55;1.60;;;;;;;;;;5056380;28;20039;-75
2024/03/24 11:07:29;;;;;;;12.10;2.08;;;;;;;;;;5032468;28;20054;-75
2024/03/24 11:09:55;;;;;;;12.77;2.15;;;;;;;;;;5055862;28;20475;-75
2024/03/24 11:12:21;;;;;;;17.27;2.28;;;;;;;;;;5060530;28;20071;-75
2024/03/24 11:14:47;;;;;;;18.00;2.33;;;;;;;;;;5050869;28;20050;-74
2024/03/24 11:17:13;;;;;;;13.75;1.85;;;;;;;;;;5044853;28;20065;-79
2024/03/24 11:20:05;;;;;;;14.20;2.20;;;;;;;;;;5049937;28;20048;-74
2024/03/24 11:22:44;;;;;;;14.73;2.08;;;;;;;;;;5049713;28;20037;-77
2024/03/24 11:25:10;;;;;;;15.40;1.95;;;;;;;;;;5043690;28;20363;-74
2024/03/24 11:27:41;;;;;;;14.23;2.03;;;;;;;;;;5059884;28;20044;-74
2024/03/24 11:30:17;;;;;;;9.98;1.40;;;;;;;;;;5074967;28;20046;-74
2024/03/24 11:32:54;;;;;;;14.82;2.10;;;;;;;;;;5054438;28;20063;-74
2024/03/24 11:35:25;;;;;;;11.13;2.05;;;;;;;;;;5055986;28;20064;-74
2024/03/24 11:37:52;;;;;;;10.07;2.30;;;;;;;;;;5059492;28;20744;-74
2024/03/24 11:40:21;;;;;;;19.15;2.28;;;;;;;;;;5039978;28;20036;-73
2024/03/24 11:42:51;;;;;;;12.93;2.08;;;;;;;;;;5055919;28;20039;-74
2024/03/24 11:45:26;;;;;;;13.73;2.20;;;;;;;;;;5055635;28;20045;-73
2024/03/24 11:48:17;;;;;;;11.05;1.83;;;;;;;;;;5058082;28;20047;-73
2024/03/24 11:50:43;;;;;;;14.07;2.30;;;;;;;;;;5056318;28;20463;-74
2024/03/24 11:53:09;;;;;;;7.20;1.65;;;;;;;;;;5054296;28;20417;-74
2024/03/24 11:55:42;;;;;;;10.77;2.40;;;;;;;;;;5072673;28;20474;-73
2024/03/24 11:58:08;;;;;;;8.77;1.60;;;;;;;;;;5074599;28;20487;-75
2024/03/24 12:00:34;;;;;;;10.52;1.88;;;;;;;;;;5073294;28;20119;-74
2024/03/24 12:02:59;;;;;;;14.30;1.90;;;;;;;;;;5067684;28;20040;-74
2024/03/24 12:05:25;;;;;;;11.02;2.08;;;;;;;;;;5055808;28;20052;-73
2024/03/24 12:07:52;;;;;;;12.02;2.13;;;;;;;;;;5057511;28;20045;-73
2024/03/24 12:10:17;;;;;;;11.73;1.98;;;;;;;;;;5057244;28;20040;-74
2024/03/24 12:12:44;;;;;;;11.90;2.35;;;;;;;;;;5060238;28;20445;-73
2024/03/24 12:15:10;;;;;;;13.02;1.92;;;;;;;;;;5073765;28;20036;-76
2024/03/24 12:17:36;;;;;;;13.95;2.40;;;;;;;;;;5072895;28;20050;-73
2024/03/24 12:20:03;;;;;;;13.35;1.92;;;;;;;;;;5064628;28;20050;-73
2024/03/24 12:22:31;;;;;;;11.07;1.90;;;;;;;;;;5056224;28;20044;-74
2024/03/24 12:24:57;;;;;;;10.05;1.75;;;;;;;;;;5067611;28;20058;-74
2024/03/24 12:27:23;;;;;;;11.38;2.08;;;;;;;;;;5055977;28;20040;-74
2024/03/24 12:29:55;;;;;;;10.80;2.35;;;;;;;;;;5056449;28;20384;-73
2024/03/24 12:32:24;;;;;;;9.80;1.85;;;;;;;;;;5055755;28;20049;-74
2024/03/24 12:34:50;;;;;;;10.60;2.03;;;;;;;;;;5055956;28;20048;-74
2024/03/24 12:37:17;;;;;;;14.52;2.20;;;;;;;;;;5058096;28;20071;-74
2024/03/24 12:39:49;;;;;;;9.48;2.10;;;;;;;;;;5055916;28;20040;-73
2024/03/24 12:42:16;;;;;;;12.77;2.13;;;;;;;;;;5059404;28;20081;-74
2024/03/24 12:44:42;;;;;;;10.27;1.90;;;;;;;;;;5075808;28;20048;-76
2024/03/24 12:47:09;;;;;;;12.63;2.00;;;;;;;;;;5058861;28;20082;-77
2024/03/24 12:49:36;;;;;;;10.73;1.80;;;;;;;;;;5073950;28;20093;-76
2024/03/24 12:52:03;;;;;;;12.13;1.55;;;;;;;;;;5054110;28;20051;-75
2024/03/24 12:54:29;;;;;;;11.68;2.20;;;;;;;;;;5051982;28;20045;-75
2024/03/24 12:56:56;;;;;;;13.65;2.40;;;;;;;;;;5054552;28;20036;-74
2024/03/24 12:59:22;;;;;;;13.35;2.47;;;;;;;;;;5053798;28;20044;-73
2024/03/24 13:01:48;;;;;;;13.77;2.13;;;;;;;;;;5055220;28;20094;-75
2024/03/24 13:04:17;;;;;;;14.07;2.47;;;;;;;;;;5054595;28;20040;-74
2024/03/24 13:06:45;;;;;;;7.80;1.75;;;;;;;;;;5037584;28;20049;-73
2024/03/24 13:09:12;;;;;;;12.15;2.10;;;;;;;;;;5053420;28;20037;-73
2024/03/24 13:11:38;;;;;;;17.40;2.78;;;;;;;;;;5055071;28;20043;-74
2024/03/24 13:14:04;;;;;;;15.20;1.70;;;;;;;;;;5020551;28;20040;-73
2024/03/24 13:16:52;;;;;;;12.18;2.00;;;;;;;;;;5057378;28;20127;-74
2024/03/24 13:19:23;;;;;;;9.55;1.67;;;;;;;;;;5052805;28;20494;-75
2024/03/24 13:22:09;;;;;;;11.05;1.73;;;;;;;;;;5061907;28;20036;-74
2024/03/24 13:24:41;;;;;;;12.35;1.88;;;;;;;;;;5052749;28;20044;-75
2024/03/24 13:27:15;;;;;;;14.05;1.90;;;;;;;;;;5054485;28;20047;-74
2024/03/24 13:29:41;;;;;;;8.75;1.77;;;;;;;;;;5053538;28;20098;-74
2024/03/24 13:32:07;;;;;;;13.70;1.50;;;;;;;;;;5057721;28;20048;-74
2024/03/24 13:34:33;;;;;;;13.50;1.75;;;;;;;;;;5057932;28;20455;-73
2024/03/24 13:37:15;;;;;;;6.38;1.52;;;;;;;;;;5039505;28;20040;-74
2024/03/24 13:40:09;;;;;;;12.25;2.03;;;;;;;;;;5063445;28;20040;-74
2024/03/24 13:43:19;;;;;;;12.82;1.75;;;;;;;;;;5058267;28;20045;-75
2024/03/24 13:45:57;;;;;;;15.50;1.77;;;;;;;;;;4970791;28;20528;-75
2024/03/24 13:48:26;;;;;;;11.65;2.28;;;;;;;;;;4953949;28;20059;-73
2024/03/24 13:50:52;;;;;;;11.18;1.70;;;;;;;;;;4954097;28;20046;-74
2024/03/24 13:53:20;;;;;;;8.48;1.98;;;;;;;;;;4960792;28;20046;-74
2024/03/24 13:55:46;;;;;;;12.48;2.30;;;;;;;;;;4956931;28;20193;-74
2024/03/24 13:58:11;;;;;;;15.13;2.35;;;;;;;;;;4956856;28;20050;-74
2024/03/24 14:00:38;;;;;;;10.95;1.95;;;;;;;;;;4955565;28;20509;-73
2024/03/24 14:03:06;;;;;;;12.93;2.42;;;;;;;;;;4944882;28;20053;-73
2024/03/24 14:05:32;;;;;;;9.93;1.90;;;;;;;;;;4953648;28;20047;-72
2024/03/24 14:07:58;;;;;;;10.70;1.90;;;;;;;;;;4958880;28;20548;-73
2024/03/24 14:10:24;;;;;;;15.13;1.92;;;;;;;;;;4955686;28;20043;-73
2024/03/24 14:12:53;;;;;;;12.25;2.00;;;;;;;;;;4971756;28;20050;-73
2024/03/24 14:15:39;;;;;;;11.00;1.52;;;;;;;;;;4953171;28;20056;-73
2024/03/24 14:18:17;;;;;;;10.13;1.92;;;;;;;;;;4948005;28;20053;-73
2024/03/24 14:20:57;;;;;;;15.57;1.75;;;;;;;;;;4968426;28;20050;-73
2024/03/24 14:23:34;;;;;;;16.38;2.30;;;;;;;;;;5052166;28;20041;-73
2024/03/24 14:26:00;;;;;;;11.68;1.60;;;;;;;;;;5059592;28;20039;-73
2024/03/24 14:28:27;;;;;;;10.18;1.80;;;;;;;;;;5053351;28;20048;-73
2024/03/24 14:30:53;;;;;;;7.93;1.15;;;;;;;;;;5053992;28;20036;-73
2024/03/24 14:33:19;;;;;;;10.52;1.17;;;;;;;;;;5054018;28;20040;-73